Time;durP1;ratioP1;P1;durP2;ratioP2;P2;SDS_P1;SDS_P2;PMS_P1;PMS_P2;Temp;Humidity;BMP_temperature;BMP_pressure;BME280_temperature;BME280_humidity;BME280_pressure;Samples;Min_cycle;Max_cycle;Signal;HPM_P1;HPM_P2
2022/06/04 00:00:21;;;;;;;4.50;4.10;;;18.70;99.90;;;;;;5072359;28;20168;-64
2022/06/04 00:02:48;;;;;;;4.55;4.05;;;18.70;99.90;;;;;;5072486;28;20192;-64
2022/06/04 00:05:16;;;;;;;4.70;3.65;;;18.70;99.90;;;;;;5072375;28;20192;-65
2022/06/04 00:07:43;;;;;;;4.22;3.85;;;18.70;99.90;;;;;;5072761;28;20208;-63
2022/06/04 00:15:45;;;;;;;4.72;3.95;;;18.60;99.90;;;;;;5072774;28;20200;-63
2022/06/04 00:18:11;;;;;;;6.75;4.55;;;18.60;99.90;;;;;;5071498;28;20217;-63
2022/06/04 00:20:37;;;;;;;5.68;4.10;;;18.60;99.90;;;;;;5072161;28;20199;-63
2022/06/04 00:23:04;;;;;;;5.32;4.28;;;18.60;99.90;;;;;;5072114;28;20216;-63
2022/06/04 00:25:31;;;;;;;4.78;3.88;;;18.50;99.90;;;;;;5070850;28;20219;-63
2022/06/04 00:27:59;;;;;;;4.38;3.97;;;18.50;99.90;;;;;;5069091;28;20181;-63
2022/06/04 00:30:24;;;;;;;4.55;3.70;;;18.50;99.90;;;;;;5070393;28;20632;-62
2022/06/04 00:32:50;;;;;;;4.57;3.53;;;18.50;99.90;;;;;;5071771;28;20295;-63
2022/06/04 00:35:15;;;;;;;4.65;3.97;;;18.40;99.90;;;;;;5071785;28;20579;-63
2022/06/04 00:37:41;;;;;;;4.85;3.67;;;18.40;99.90;;;;;;5072157;28;20180;-63
2022/06/04 00:40:11;;;;;;;4.15;3.75;;;18.30;99.90;;;;;;5071441;28;20176;-63
2022/06/04 00:42:36;;;;;;;6.50;4.40;;;18.30;99.90;;;;;;5071538;28;20263;-63
2022/06/04 00:45:20;;;;;;;5.13;3.90;;;18.30;99.90;;;;;;5072423;28;20578;-62
2022/06/04 00:47:46;;;;;;;6.30;4.05;;;18.20;99.90;;;;;;5071957;28;20177;-63
2022/06/04 00:50:14;;;;;;;4.55;4.15;;;18.20;99.90;;;;;;5071552;28;20231;-63
2022/06/04 00:52:41;;;;;;;4.95;4.40;;;18.20;99.90;;;;;;5071559;28;20299;-63
2022/06/04 00:55:08;;;;;;;5.43;4.15;;;18.20;99.90;;;;;;5071678;28;20173;-63
2022/06/04 00:57:45;;;;;;;4.30;3.70;;;18.10;99.90;;;;;;5082366;28;20717;-63
2022/06/04 01:00:24;;;;;;;6.22;4.13;;;18.10;99.90;;;;;;5075152;28;20175;-62
2022/06/04 01:03:01;;;;;;;4.28;3.88;;;18.10;99.90;;;;;;5071177;28;20184;-62
2022/06/04 01:05:40;;;;;;;4.60;4.20;;;18.00;99.90;;;;;;5071318;28;20188;-63
2022/06/04 01:08:36;;;;;;;3.83;3.53;;;18.00;99.90;;;;;;5064137;28;20177;-63
2022/06/04 01:11:30;;;;;;;4.40;3.55;;;18.00;99.90;;;;;;5065809;28;20184;-62
2022/06/04 01:14:29;;;;;;;4.35;3.95;;;18.00;99.90;;;;;;5070225;28;20229;-63
2022/06/04 01:17:03;;;;;;;4.95;4.20;;;18.00;99.90;;;;;;5070850;28;20173;-63
2022/06/04 01:19:32;;;;;;;4.90;4.20;;;18.00;99.90;;;;;;5071159;28;20255;-62
2022/06/04 01:22:18;;;;;;;3.83;3.53;;;17.90;99.90;;;;;;5070652;28;20169;-62
2022/06/04 01:25:00;;;;;;;5.90;3.85;;;17.90;99.90;;;;;;5071642;28;20256;-62
2022/06/04 01:27:29;;;;;;;4.18;3.75;;;17.90;99.90;;;;;;5071528;28;20212;-62
2022/06/04 01:30:03;;;;;;;4.35;3.78;;;17.90;99.90;;;;;;5071015;28;20188;-62
2022/06/04 01:32:49;;;;;;;5.28;4.05;;;17.90;99.90;;;;;;5070689;28;21795;-63
2022/06/04 01:35:22;;;;;;;4.20;3.60;;;17.90;99.90;;;;;;5071427;28;20180;-62
2022/06/04 01:37:59;;;;;;;4.40;4.00;;;17.90;99.90;;;;;;5073442;28;20787;-62
2022/06/04 01:43:18;;;;;;;5.03;3.85;;;17.90;99.90;;;;;;5075236;28;20234;-62
2022/06/04 01:45:45;;;;;;;4.63;3.97;;;18.00;99.90;;;;;;5074755;28;20185;-62
2022/06/04 01:48:12;;;;;;;4.88;4.30;;;17.90;99.90;;;;;;5074470;28;20169;-62
2022/06/04 01:50:49;;;;;;;4.25;3.85;;;17.90;99.90;;;;;;5074508;28;20191;-62
2022/06/04 01:53:17;;;;;;;4.20;3.80;;;17.90;99.90;;;;;;5074260;28;20216;-62
2022/06/04 01:56:10;;;;;;;6.25;4.47;;;17.80;99.90;;;;;;5074511;28;20189;-63
2022/06/04 01:58:49;;;;;;;5.38;4.57;;;17.70;99.90;;;;;;5054662;28;20213;-62
2022/06/04 02:01:20;;;;;;;7.15;5.40;;;17.60;99.90;;;;;;5074173;28;20188;-62
2022/06/04 02:04:15;;;;;;;6.72;5.20;;;17.60;99.90;;;;;;5074285;28;20181;-63
2022/06/04 02:07:29;;;;;;;7.40;5.30;;;17.50;99.90;;;;;;5064416;28;20176;-63
2022/06/04 02:09:34;;;;;;;7.88;5.45;;;17.50;99.90;;;;;;5074074;28;20731;-63
2022/06/04 02:12:03;;;;;;;5.90;5.30;;;17.50;99.90;;;;;;5074223;28;20196;-63
2022/06/04 02:14:28;;;;;;;8.85;5.45;;;17.50;99.90;;;;;;5074191;28;20606;-63
2022/06/04 02:17:01;;;;;;;7.88;5.47;;;17.50;99.90;;;;;;5074365;28;20181;-63
2022/06/04 02:19:27;;;;;;;7.20;5.10;;;17.40;99.90;;;;;;5073604;28;20228;-63
2022/06/04 02:21:54;;;;;;;6.22;5.20;;;17.40;99.90;;;;;;5073717;28;20582;-63
2022/06/04 02:24:20;;;;;;;5.38;4.88;;;17.40;99.90;;;;;;5073858;28;20180;-63
2022/06/04 02:26:46;;;;;;;9.10;5.30;;;17.40;99.90;;;;;;5073983;28;20222;-63
2022/06/04 02:29:12;;;;;;;5.63;5.05;;;17.30;99.90;;;;;;5074177;28;20185;-63
2022/06/04 02:31:52;;;;;;;5.40;4.85;;;17.30;99.90;;;;;;5074034;28;20195;-63
2022/06/04 02:34:24;;;;;;;5.72;4.95;;;17.30;99.90;;;;;;5073755;28;20215;-63
2022/06/04 02:36:55;;;;;;;5.90;5.30;;;17.30;99.90;;;;;;5073759;28;20177;-63
2022/06/04 02:39:37;;;;;;;5.97;5.38;;;17.30;99.90;;;;;;5074249;28;20181;-63
2022/06/04 02:42:57;;;;;;;6.18;4.85;;;17.30;99.90;;;;;;5073583;28;20177;-63
2022/06/04 02:45:38;;;;;;;4.75;4.15;;;17.20;99.90;;;;;;5063922;28;20178;-63
2022/06/04 02:48:32;;;;;;;4.80;4.30;;;17.20;99.90;;;;;;5058897;28;20180;-62
2022/06/04 02:51:15;;;;;;;6.80;4.43;;;17.20;99.90;;;;;;5063626;28;20193;-63
2022/06/04 02:53:42;;;;;;;5.28;4.40;;;17.20;99.90;;;;;;5073120;28;20333;-63
2022/06/04 02:56:16;;;;;;;5.68;4.30;;;17.10;99.90;;;;;;5073623;28;20196;-63
2022/06/04 02:58:43;;;;;;;4.40;3.88;;;17.10;99.90;;;;;;5071771;28;20271;-63
2022/06/04 03:01:10;;;;;;;4.55;4.15;;;17.10;99.90;;;;;;5073210;28;20184;-63
2022/06/04 03:03:36;;;;;;;4.38;3.97;;;17.10;99.90;;;;;;5073153;28;20184;-63
2022/06/04 03:06:06;;;;;;;6.60;4.30;;;17.10;99.90;;;;;;5073557;28;20181;-63
2022/06/04 03:08:35;;;;;;;4.35;3.85;;;17.10;99.90;;;;;;5073120;28;20188;-63
2022/06/04 03:11:01;;;;;;;4.88;4.38;;;17.00;99.90;;;;;;5071159;28;20177;-63
2022/06/04 03:13:27;;;;;;;6.82;4.45;;;17.00;99.90;;;;;;5072603;28;20224;-63
2022/06/04 03:15:53;;;;;;;5.32;4.22;;;17.00;99.90;;;;;;5072520;28;20231;-63
2022/06/04 03:18:19;;;;;;;5.45;4.65;;;17.00;99.90;;;;;;5070170;28;20559;-63
2022/06/04 03:20:45;;;;;;;6.07;4.72;;;17.00;99.90;;;;;;5073000;28;20173;-63
2022/06/04 03:23:11;;;;;;;5.35;4.65;;;17.00;99.90;;;;;;5072786;28;20280;-63
2022/06/04 03:25:38;;;;;;;6.00;4.65;;;17.00;99.90;;;;;;5071791;28;20213;-63
2022/06/04 03:28:05;;;;;;;7.60;5.07;;;17.00;99.90;;;;;;5072685;28;20191;-63
2022/06/04 03:30:32;;;;;;;6.95;4.95;;;17.00;99.90;;;;;;5072921;28;20216;-63
2022/06/04 03:32:57;;;;;;;6.00;4.85;;;17.00;99.90;;;;;;5072781;28;20212;-63
2022/06/04 03:35:24;;;;;;;6.15;4.75;;;17.00;99.90;;;;;;5072301;28;20230;-63
2022/06/04 03:37:50;;;;;;;6.30;4.82;;;17.00;99.90;;;;;;5072580;28;20293;-63
2022/06/04 03:40:16;;;;;;;5.47;4.68;;;17.00;99.90;;;;;;5072970;28;20635;-63
2022/06/04 03:42:42;;;;;;;5.78;4.88;;;17.00;99.90;;;;;;5072071;28;20703;-64
2022/06/04 03:45:10;;;;;;;5.25;4.75;;;17.10;99.90;;;;;;5072571;28;20259;-63
2022/06/04 03:47:36;;;;;;;7.13;5.10;;;17.10;99.90;;;;;;5072106;28;20188;-63
2022/06/04 03:50:25;;;;;;;5.47;4.43;;;17.10;99.90;;;;;;5071789;28;20185;-63
2022/06/04 03:52:51;;;;;;;7.93;5.03;;;17.20;99.90;;;;;;5072098;28;20208;-64
2022/06/04 03:55:18;;;;;;;6.90;4.55;;;17.20;99.90;;;;;;5072050;28;20183;-64
2022/06/04 03:57:48;;;;;;;5.50;4.55;;;17.30;99.90;;;;;;5064516;28;20185;-64
2022/06/04 04:00:24;;;;;;;5.05;4.22;;;17.40;99.90;;;;;;5072129;28;20251;-64
2022/06/04 04:02:53;;;;;;;6.28;4.63;;;17.40;99.90;;;;;;5071862;28;20322;-64
2022/06/04 04:05:28;;;;;;;5.70;4.18;;;17.50;99.90;;;;;;5069852;28;20267;-64
2022/06/04 04:07:54;;;;;;;4.95;4.38;;;17.50;99.90;;;;;;5071316;28;20267;-64
2022/06/04 04:10:20;;;;;;;5.40;4.80;;;17.50;99.90;;;;;;5071487;28;20181;-64
2022/06/04 04:12:46;;;;;;;6.45;4.68;;;17.60;99.90;;;;;;5071942;28;20201;-64
2022/06/04 04:15:13;;;;;;;7.40;5.00;;;17.60;99.90;;;;;;5071406;28;20185;-64
2022/06/04 04:17:39;;;;;;;5.38;4.80;;;17.60;99.90;;;;;;5072318;28;20286;-64
2022/06/04 04:20:34;;;;;;;6.45;4.57;;;17.70;99.90;;;;;;5071206;28;20197;-64
2022/06/04 04:23:01;;;;;;;5.30;4.75;;;17.80;99.90;;;;;;5072106;28;20189;-64
2022/06/04 04:25:28;;;;;;;5.00;4.50;;;17.90;99.90;;;;;;5071801;28;20272;-64
2022/06/04 04:27:54;;;;;;;5.82;5.10;;;18.00;99.90;;;;;;5071972;28;20184;-64
2022/06/04 04:30:24;;;;;;;7.00;4.60;;;18.20;99.90;;;;;;5071449;28;20185;-64
2022/06/04 04:32:50;;;;;;;6.78;4.78;;;18.40;99.90;;;;;;5062167;28;20236;-64
2022/06/04 04:35:22;;;;;;;5.05;4.30;;;18.60;99.90;;;;;;5070932;28;20184;-64
2022/06/04 04:37:48;;;;;;;4.57;4.10;;;18.90;99.90;;;;;;5071452;28;20185;-64
2022/06/04 04:40:16;;;;;;;4.57;4.10;;;19.30;99.90;;;;;;5071444;28;20179;-64
2022/06/04 04:42:43;;;;;;;5.88;4.35;;;19.70;99.90;;;;;;5071295;28;20211;-64
2022/06/04 04:45:09;;;;;;;4.18;3.78;;;20.00;99.90;;;;;;5070736;28;20177;-64
2022/06/04 04:47:36;;;;;;;6.45;4.20;;;20.20;99.90;;;;;;5071758;28;20191;-64
2022/06/04 04:50:04;;;;;;;5.60;4.03;;;20.20;99.90;;;;;;5071175;28;20532;-64
2022/06/04 04:52:30;;;;;;;6.72;4.47;;;20.20;99.90;;;;;;5071355;28;20232;-64
2022/06/04 04:54:55;;;;;;;7.20;4.30;;;20.30;99.90;;;;;;5071110;28;20212;-64
2022/06/04 04:57:21;;;;;;;4.78;4.18;;;20.60;99.90;;;;;;5071284;28;20213;-64
2022/06/04 04:59:47;;;;;;;4.78;4.20;;;20.60;99.90;;;;;;5071781;28;20192;-64
2022/06/04 05:02:12;;;;;;;4.60;4.10;;;20.70;99.90;;;;;;5071193;28;20216;-64
2022/06/04 05:04:38;;;;;;;4.45;4.05;;;20.70;99.90;;;;;;5071270;28;20173;-64
2022/06/04 05:07:04;;;;;;;4.65;4.18;;;20.60;99.90;;;;;;5070957;28;20656;-64
2022/06/04 05:09:30;;;;;;;5.38;4.43;;;20.90;99.90;;;;;;5070934;28;20185;-64
2022/06/04 05:11:56;;;;;;;5.35;4.57;;;21.40;99.90;;;;;;5071707;28;20192;-64
2022/06/04 05:14:21;;;;;;;5.15;4.20;;;21.80;99.90;;;;;;5071559;28;20189;-64
2022/06/04 05:16:47;;;;;;;6.20;4.65;;;22.30;99.90;;;;;;5071484;28;20180;-64
2022/06/04 05:19:13;;;;;;;5.60;4.50;;;22.80;99.90;;;;;;5070806;28;20224;-64
2022/06/04 05:21:47;;;;;;;7.47;4.60;;;23.10;99.90;;;;;;5071752;28;20181;-64
2022/06/04 05:24:15;;;;;;;4.68;4.25;;;23.20;99.90;;;;;;5070886;28;20187;-64
2022/06/04 05:26:40;;;;;;;6.50;4.68;;;23.20;99.90;;;;;;5071160;28;20177;-64
2022/06/04 05:29:06;;;;;;;4.97;4.40;;;23.60;99.90;;;;;;5070358;28;20202;-64
2022/06/04 05:31:31;;;;;;;6.75;4.63;;;23.90;99.90;;;;;;5070202;28;20628;-64
2022/06/04 05:33:57;;;;;;;6.43;4.40;;;24.00;99.90;;;;;;5070428;28;20224;-64
2022/06/04 05:36:22;;;;;;;7.15;4.88;;;23.90;99.90;;;;;;5070329;28;20181;-64
2022/06/04 05:38:48;;;;;;;6.00;4.78;;;23.60;99.90;;;;;;5071630;28;20216;-64
2022/06/04 05:41:14;;;;;;;5.97;5.00;;;23.30;99.90;;;;;;5070871;28;20177;-64
2022/06/04 05:43:40;;;;;;;5.38;4.88;;;23.00;99.90;;;;;;5064182;28;20172;-64
2022/06/04 05:46:09;;;;;;;6.18;4.80;;;22.70;99.90;;;;;;5071061;28;20567;-64
2022/06/04 05:48:40;;;;;;;6.13;5.00;;;22.40;99.90;;;;;;5070462;28;20188;-64
2022/06/04 05:51:08;;;;;;;6.93;5.30;;;22.10;99.90;;;;;;5070770;28;20181;-63
2022/06/04 05:53:33;;;;;;;7.07;6.22;;;21.70;99.90;;;;;;5071006;28;20209;-63
2022/06/04 05:55:59;;;;;;;8.05;6.22;;;21.40;99.90;;;;;;5070759;28;20173;-63
2022/06/04 05:58:24;;;;;;;9.23;7.68;;;21.00;99.90;;;;;;5069883;28;20651;-63
2022/06/04 06:00:58;;;;;;;9.30;7.22;;;20.70;99.90;;;;;;5067056;28;20185;-63
2022/06/04 06:03:23;;;;;;;9.18;7.75;;;20.50;99.90;;;;;;5071027;28;20181;-64
2022/06/04 06:05:49;;;;;;;9.05;7.90;;;20.30;99.90;;;;;;5071007;28;20185;-64
2022/06/04 06:08:14;;;;;;;10.32;8.45;;;20.10;99.90;;;;;;5070363;28;20234;-64
2022/06/04 06:10:44;;;;;;;9.93;8.40;;;19.90;99.90;;;;;;5070777;28;20570;-63
2022/06/04 06:13:12;;;;;;;11.52;8.88;;;19.50;99.90;;;;;;5062750;28;20374;-63
2022/06/04 06:15:38;;;;;;;10.90;9.55;;;19.20;99.90;;;;;;5070531;28;20234;-63
2022/06/04 06:18:06;;;;;;;11.90;9.82;;;19.00;99.90;;;;;;5070022;28;20325;-63
2022/06/04 06:20:32;;;;;;;12.15;9.80;;;18.80;99.90;;;;;;5070654;28;20173;-63
2022/06/04 06:22:58;;;;;;;11.05;8.95;;;18.70;99.90;;;;;;5071700;28;20177;-63
2022/06/04 06:25:24;;;;;;;12.93;9.27;;;18.60;99.90;;;;;;5074510;28;20188;-63
2022/06/04 06:27:49;;;;;;;11.82;9.18;;;18.50;99.90;;;;;;5073330;28;20274;-63
2022/06/04 06:30:15;;;;;;;17.20;10.10;;;18.40;99.90;;;;;;5073415;28;20189;-63
2022/06/04 06:32:41;;;;;;;11.73;9.00;;;18.30;99.90;;;;;;5073920;28;20216;-63
2022/06/04 06:35:08;;;;;;;11.93;9.25;;;18.20;99.90;;;;;;5089538;28;20227;-64
2022/06/04 06:37:34;;;;;;;10.90;8.10;;;18.20;99.90;;;;;;5074251;28;20344;-64
2022/06/04 06:40:00;;;;;;;12.57;9.77;;;18.30;99.90;;;;;;5073504;28;20656;-64
2022/06/04 06:42:25;;;;;;;10.20;8.93;;;18.30;99.90;;;;;;5074100;28;20181;-63
2022/06/04 06:44:54;;;;;;;13.45;8.93;;;18.40;99.90;;;;;;5073656;28;20173;-63
2022/06/04 06:47:21;;;;;;;9.63;8.25;;;18.40;99.90;;;;;;5073177;28;20267;-64
2022/06/04 06:49:47;;;;;;;12.45;9.00;;;18.40;99.90;;;;;;5073627;28;20254;-64
2022/06/04 06:52:13;;;;;;;12.18;9.52;;;18.40;99.90;;;;;;5073286;28;20794;-63
2022/06/04 06:54:39;;;;;;;12.45;9.25;;;18.40;99.90;;;;;;5072757;28;20722;-64
2022/06/04 06:57:07;;;;;;;13.82;10.32;;;18.50;99.90;;;;;;5073402;28;20276;-64
2022/06/04 06:59:34;;;;;;;13.93;9.95;;;18.40;99.90;;;;;;5072898;28;20238;-64
2022/06/04 07:02:00;;;;;;;11.15;9.48;;;18.50;99.90;;;;;;5072957;28;20177;-64
2022/06/04 07:04:27;;;;;;;11.50;9.65;;;18.50;99.90;;;;;;5073433;28;20532;-64
2022/06/04 07:06:58;;;;;;;17.88;9.90;;;18.50;99.90;;;;;;5073196;28;20177;-64
2022/06/04 07:09:39;;;;;;;12.88;10.02;;;18.50;99.90;;;;;;5060236;28;20181;-64
2022/06/04 07:12:07;;;;;;;12.10;10.10;;;18.60;99.90;;;;;;5073400;28;20181;-64
2022/06/04 07:14:33;;;;;;;14.45;10.05;;;18.70;99.90;;;;;;5073298;28;20581;-64
2022/06/04 07:16:59;;;;;;;13.15;10.38;;;18.80;99.90;;;;;;5073526;28;20258;-63
2022/06/04 07:19:26;;;;;;;13.27;10.45;;;18.80;99.90;;;;;;5064600;28;20217;-64
2022/06/04 07:21:54;;;;;;;14.80;10.88;;;18.90;99.90;;;;;;5070716;28;20295;-64
2022/06/04 07:24:20;;;;;;;20.13;13.75;;;19.00;99.90;;;;;;5072656;28;20177;-64
2022/06/04 07:26:46;;;;;;;19.35;12.95;;;19.10;99.90;;;;;;5073647;28;20180;-63
2022/06/04 07:29:13;;;;;;;14.30;11.27;;;19.30;99.90;;;;;;5072839;28;20208;-62
2022/06/04 07:31:40;;;;;;;14.27;10.18;;;19.50;99.90;;;;;;5072148;28;20177;-61
2022/06/04 07:34:06;;;;;;;12.13;9.90;;;19.70;99.90;;;;;;5072084;28;20216;-68
2022/06/04 07:36:35;;;;;;;12.80;8.95;;;19.80;99.90;;;;;;5072634;28;20172;-64
2022/06/04 07:39:02;;;;;;;11.95;9.00;;;19.90;99.90;;;;;;5072367;28;20275;-64
2022/06/04 07:41:38;;;;;;;11.98;9.57;;;20.00;99.90;;;;;;5073381;28;20215;-66
2022/06/04 07:44:05;;;;;;;10.10;8.40;;;20.10;99.90;;;;;;5072651;28;20268;-66
2022/06/04 07:46:31;;;;;;;12.75;9.40;;;20.20;99.90;;;;;;5072526;28;20180;-69
2022/06/04 07:49:03;;;;;;;10.02;9.02;;;20.40;99.90;;;;;;5071953;28;20272;-64
2022/06/04 07:51:30;;;;;;;10.60;8.90;;;20.60;99.90;;;;;;5072404;28;20711;-64
2022/06/04 07:53:56;;;;;;;10.38;8.80;;;20.80;99.90;;;;;;5071947;28;20220;-63
2022/06/04 07:56:23;;;;;;;9.23;7.85;;;21.00;99.90;;;;;;5072578;28;20785;-66
2022/06/04 07:58:49;;;;;;;11.90;9.40;;;21.20;99.90;;;;;;5071767;28;21019;-68
2022/06/04 08:01:17;;;;;;;11.93;9.00;;;21.30;99.90;;;;;;5072213;28;20181;-62
2022/06/04 08:03:45;;;;;;;11.25;8.60;;;21.30;99.90;;;;;;5072152;28;20195;-63
2022/06/04 08:06:13;;;;;;;10.88;8.55;;;21.40;99.90;;;;;;5071943;28;20181;-62
2022/06/04 08:08:39;;;;;;;11.65;8.23;;;21.40;99.90;;;;;;5071959;28;20188;-66
2022/06/04 08:13:52;;;;;;;10.77;9.05;;;21.50;99.90;;;;;;5070023;28;20582;-63
2022/06/04 08:16:18;;;;;;;10.77;7.97;;;21.60;99.90;;;;;;5072048;28;20230;-64
2022/06/04 08:18:43;;;;;;;10.57;8.85;;;21.60;99.90;;;;;;5072078;28;20281;-65
2022/06/04 08:21:09;;;;;;;10.82;8.55;;;21.60;99.90;;;;;;5072297;28;20173;-64
2022/06/04 08:23:35;;;;;;;8.95;8.05;;;21.60;99.90;;;;;;5072361;28;20192;-64
2022/06/04 08:26:02;;;;;;;12.43;9.25;;;21.70;99.90;;;;;;5072534;28;20286;-63
2022/06/04 08:28:28;;;;;;;12.80;9.18;;;21.70;99.90;;;;;;5072337;28;20180;-63
2022/06/04 08:31:09;;;;;;;11.20;8.95;;;21.70;99.90;;;;;;5071967;28;20271;-65
2022/06/04 08:33:36;;;;;;;12.55;8.75;;;21.70;99.90;;;;;;5072226;28;20223;-63
2022/06/04 08:36:02;;;;;;;10.25;8.60;;;21.60;99.90;;;;;;5072243;28;20259;-64
2022/06/04 08:38:28;;;;;;;11.30;8.90;;;21.60;99.90;;;;;;5072142;28;20741;-63
2022/06/04 08:40:57;;;;;;;9.73;8.73;;;21.50;99.90;;;;;;5072112;28;20268;-64
2022/06/04 08:43:58;;;;;;;10.35;8.05;;;21.50;99.90;;;;;;5071056;28;20183;-64
2022/06/04 08:46:35;;;;;;;12.32;9.60;;;21.60;99.90;;;;;;5070220;28;20237;-64
2022/06/04 08:49:05;;;;;;;13.18;10.32;;;21.70;99.90;;;;;;5071696;28;20643;-65
2022/06/04 08:51:31;;;;;;;10.10;8.38;;;21.70;99.90;;;;;;5071073;28;20177;-64
2022/06/04 08:53:58;;;;;;;9.38;8.00;;;21.70;99.90;;;;;;5071424;28;20224;-62
2022/06/04 08:59:28;;;;;;;11.23;8.30;;;21.60;99.90;;;;;;5071950;28;20191;-63
2022/06/04 09:02:02;;;;;;;11.98;8.70;;;21.50;99.90;;;;;;5072055;28;20528;-64
2022/06/04 09:05:10;;;;;;;10.57;8.90;;;21.40;99.90;;;;;;5071927;28;20177;-64
2022/06/04 09:07:46;;;;;;;14.73;9.07;;;21.40;99.90;;;;;;5072071;28;20180;-64
2022/06/04 09:10:31;;;;;;;10.88;8.98;;;21.30;99.90;;;;;;5071713;28;20180;-64
2022/06/04 09:13:16;;;;;;;13.35;9.43;;;21.30;99.90;;;;;;5070619;28;20262;-64
2022/06/04 09:15:54;;;;;;;10.80;8.70;;;21.30;99.90;;;;;;5071946;28;20219;-64
2022/06/04 09:18:31;;;;;;;11.85;9.50;;;21.20;99.90;;;;;;5071628;28;20232;-64
2022/06/04 09:20:59;;;;;;;11.30;9.18;;;21.20;99.90;;;;;;5071765;28;20666;-65
2022/06/04 09:23:34;;;;;;;11.43;9.20;;;21.30;99.90;;;;;;5071795;28;20207;-64
2022/06/04 09:26:15;;;;;;;11.13;9.55;;;21.30;99.90;;;;;;5071563;28;20172;-64
2022/06/04 09:28:59;;;;;;;14.05;9.23;;;21.30;99.90;;;;;;5071531;28;20255;-64
2022/06/04 09:31:47;;;;;;;10.77;9.68;;;21.40;99.90;;;;;;5071879;28;20674;-64
2022/06/04 09:34:38;;;;;;;10.30;9.00;;;21.50;99.90;;;;;;5071587;28;20219;-64
2022/06/04 09:37:07;;;;;;;11.10;8.95;;;21.60;99.90;;;;;;5068273;28;20188;-64
2022/06/04 09:39:35;;;;;;;12.68;9.90;;;21.70;99.90;;;;;;5070450;28;20172;-65
2022/06/04 09:42:19;;;;;;;12.80;9.00;;;21.70;99.90;;;;;;5071628;28;20631;-65
2022/06/04 09:44:57;;;;;;;11.13;9.23;;;21.80;99.90;;;;;;5071740;28;20679;-64
2022/06/04 09:47:43;;;;;;;11.57;9.35;;;21.80;99.90;;;;;;5071672;28;20180;-65
2022/06/04 09:50:32;;;;;;;11.55;9.27;;;21.70;99.90;;;;;;5071358;28;20181;-64
2022/06/04 09:53:09;;;;;;;11.25;9.25;;;21.70;99.90;;;;;;5071480;28;20687;-64
2022/06/04 09:55:37;;;;;;;10.75;9.05;;;21.80;99.90;;;;;;5071687;28;20185;-64
2022/06/04 09:58:16;;;;;;;11.30;9.98;;;22.00;99.90;;;;;;5072730;28;20700;-64
2022/06/04 10:00:58;;;;;;;13.50;10.23;;;22.10;99.90;;;;;;5074092;28;20184;-65
2022/06/04 10:03:25;;;;;;;10.38;9.13;;;22.20;99.90;;;;;;5075346;28;20183;-65
2022/06/04 10:06:03;;;;;;;12.75;9.27;;;22.30;99.90;;;;;;5075190;28;20207;-65
2022/06/04 10:08:30;;;;;;;12.15;9.30;;;22.40;99.90;;;;;;5073814;28;20184;-65
2022/06/04 10:11:01;;;;;;;11.32;9.38;;;22.40;99.90;;;;;;5075461;28;20185;-66
2022/06/04 10:13:46;;;;;;;13.10;9.95;;;22.40;99.90;;;;;;5073910;28;20265;-66
2022/06/04 10:16:28;;;;;;;11.50;10.20;;;22.50;99.90;;;;;;5074890;28;20169;-66
2022/06/04 10:18:57;;;;;;;11.88;10.15;;;22.60;99.90;;;;;;5074903;28;20309;-63
2022/06/04 10:21:35;;;;;;;11.60;10.40;;;22.40;99.90;;;;;;5073660;28;20177;-63
2022/06/04 10:24:04;;;;;;;12.70;10.77;;;22.20;99.90;;;;;;5074807;28;20177;-64
2022/06/04 10:27:00;;;;;;;12.40;10.52;;;22.20;99.90;;;;;;5074791;28;20173;-64
2022/06/04 10:30:01;;;;;;;14.23;10.88;;;22.30;99.90;;;;;;5074781;28;20295;-64
2022/06/04 10:32:51;;;;;;;15.23;11.18;;;22.30;99.90;;;;;;5074760;28;20207;-64
2022/06/04 10:35:47;;;;;;;12.60;11.30;;;22.50;99.90;;;;;;5073377;28;20185;-64
2022/06/04 10:38:34;;;;;;;14.60;11.45;;;22.60;99.90;;;;;;5074548;28;20180;-64
2022/06/04 10:41:22;;;;;;;15.65;11.40;;;22.70;99.90;;;;;;5074592;28;20191;-64
2022/06/04 10:44:18;;;;;;;16.25;11.82;;;22.70;99.90;;;;;;5074455;28;20196;-64
2022/06/04 10:47:12;;;;;;;15.30;12.32;;;22.80;99.90;;;;;;5074643;28;20173;-65
2022/06/04 10:50:15;;;;;;;14.13;11.75;;;22.60;99.90;;;;;;5074521;28;20259;-64
2022/06/04 10:52:48;;;;;;;12.70;11.13;;;22.60;99.90;;;;;;5074490;28;20254;-64
2022/06/04 10:55:35;;;;;;;14.60;11.13;;;22.50;99.90;;;;;;5074155;28;20701;-64
2022/06/04 10:58:24;;;;;;;13.68;11.45;;;22.60;99.90;;;;;;5074282;28;20173;-64
2022/06/04 11:00:54;;;;;;;16.10;12.50;;;22.60;99.90;;;;;;5074200;28;20541;-64
2022/06/04 11:03:43;;;;;;;15.80;11.50;;;22.70;99.90;;;;;;5074130;28;20176;-65
2022/06/04 11:06:17;;;;;;;15.65;11.60;;;22.80;99.90;;;;;;5070925;28;20229;-65
2022/06/04 11:08:51;;;;;;;15.57;12.23;;;22.90;99.90;;;;;;5073918;28;20210;-65
2022/06/04 11:11:34;;;;;;;15.32;12.77;;;22.90;99.90;;;;;;5074018;28;20175;-64
2022/06/04 11:14:09;;;;;;;16.92;13.05;;;22.80;99.90;;;;;;5073934;28;20220;-64
2022/06/04 11:16:41;;;;;;;16.23;12.35;;;22.80;99.90;;;;;;5074048;28;20180;-65
2022/06/04 11:19:13;;;;;;;16.30;12.60;;;22.80;99.90;;;;;;5073722;28;20617;-65
2022/06/04 11:21:53;;;;;;;15.63;12.13;;;23.00;99.90;;;;;;5073947;28;20252;-65
2022/06/04 11:24:27;;;;;;;17.17;13.13;;;23.00;99.90;;;;;;5073240;28;20322;-65
2022/06/04 11:27:07;;;;;;;15.65;13.48;;;23.00;99.90;;;;;;5069652;28;20180;-64
2022/06/04 11:29:34;;;;;;;15.70;13.98;;;23.00;99.90;;;;;;5070658;28;20189;-65
2022/06/04 11:32:07;;;;;;;14.85;13.02;;;23.20;99.90;;;;;;5073443;28;20256;-65
2022/06/04 11:34:36;;;;;;;17.38;13.32;;;23.40;99.90;;;;;;5073415;28;20678;-65
2022/06/04 11:37:29;;;;;;;14.15;12.65;;;23.50;99.90;;;;;;5072584;28;20181;-71
2022/06/04 11:39:55;;;;;;;16.23;12.75;;;23.70;99.90;;;;;;5053401;28;20177;-66
2022/06/04 11:42:52;;;;;;;18.02;12.98;;;23.70;99.90;;;;;;5061477;28;20169;-66
2022/06/04 11:46:12;;;;;;;16.15;13.18;;;23.60;99.90;;;;;;5073015;28;20215;-64
2022/06/04 11:49:04;;;;;;;14.45;12.80;;;23.70;99.90;;;;;;5059204;28;20198;-64
2022/06/04 11:51:56;;;;;;;17.20;13.52;;;23.90;99.90;;;;;;5066029;28;20603;-65
2022/06/04 11:54:29;;;;;;;15.63;12.65;;;24.00;99.90;;;;;;5064202;28;21289;-66
2022/06/04 11:57:15;;;;;;;15.55;13.25;;;24.10;99.90;;;;;;5065330;28;20761;-65
2022/06/04 11:59:50;;;;;;;14.90;12.63;;;24.30;99.90;;;;;;5073037;28;20271;-67
2022/06/04 12:02:35;;;;;;;13.55;11.77;;;24.60;99.90;;;;;;5072318;28;20190;-69
2022/06/04 12:05:00;;;;;;;15.13;12.15;;;24.70;99.90;;;;;;5072524;28;20251;-67
2022/06/04 12:07:47;;;;;;;14.20;12.55;;;24.90;99.90;;;;;;5072126;28;20639;-71
2022/06/04 12:10:50;;;;;;;14.43;12.63;;;25.10;99.90;;;;;;5072639;28;20658;-70
2022/06/04 12:13:52;;;;;;;14.25;12.75;;;25.50;99.90;;;;;;5070996;28;20200;-68
2022/06/04 12:16:36;;;;;;;17.05;12.88;;;25.80;99.90;;;;;;5061314;28;20210;-68
2022/06/04 12:25:39;;;;;;;16.58;12.95;;;26.20;99.90;;;;;;5072831;28;20187;-64
2022/06/04 12:28:29;;;;;;;15.05;12.70;;;26.30;99.90;;;;;;5072160;28;20176;-67
2022/06/04 12:30:56;;;;;;;15.07;12.63;;;26.30;99.90;;;;;;5072300;28;20624;-63
2022/06/04 12:33:48;;;;;;;13.98;12.15;;;26.20;99.90;;;;;;5071700;28;20571;-72
2022/06/04 12:36:28;;;;;;;13.20;11.48;;;26.20;99.90;;;;;;5054511;28;20743;-67
2022/06/04 12:39:19;;;;;;;15.20;12.77;;;26.10;99.90;;;;;;5052164;28;20628;-65
2022/06/04 12:41:50;;;;;;;14.27;11.57;;;26.10;99.90;;;;;;5070963;28;20181;-71
2022/06/04 12:44:25;;;;;;;12.18;10.93;;;26.20;99.90;;;;;;5071479;28;20189;-66
2022/06/04 12:46:53;;;;;;;104.07;71.65;;;26.40;99.90;;;;;;5072045;28;20180;-71
2022/06/04 12:49:54;;;;;;;29.60;22.08;;;26.30;99.90;;;;;;5071620;28;20173;-73
2022/06/04 12:52:44;;;;;;;29.38;21.20;;;26.30;99.90;;;;;;5059741;28;20185;-69
2022/06/04 12:55:24;;;;;;;14.10;11.40;;;26.30;99.90;;;;;;5067828;28;20223;-69
2022/06/04 12:57:59;;;;;;;14.15;11.27;;;26.30;99.90;;;;;;5071073;28;20168;-70
2022/06/04 13:00:38;;;;;;;12.60;10.45;;;26.20;99.90;;;;;;5071882;28;20212;-69
2022/06/04 13:03:07;;;;;;;12.82;11.30;;;26.00;99.90;;;;;;5067177;28;20176;-69
2022/06/04 13:05:53;;;;;;;12.75;10.90;;;25.80;99.90;;;;;;5071894;28;20207;-68
2022/06/04 13:08:18;;;;;;;14.43;11.85;;;25.80;99.90;;;;;;5071776;28;20179;-68
2022/06/04 13:11:17;;;;;;;12.18;10.55;;;25.90;99.90;;;;;;5071842;28;20544;-68
2022/06/04 13:13:51;;;;;;;10.35;9.30;;;26.30;99.90;;;;;;5071678;28;20702;-67
2022/06/04 13:16:20;;;;;;;15.60;11.10;;;26.60;99.90;;;;;;5071684;28;20179;-67
2022/06/04 13:19:09;;;;;;;13.93;11.93;;;26.60;99.90;;;;;;5071284;28;20625;-68
2022/06/04 13:21:41;;;;;;;11.35;10.18;;;26.40;99.90;;;;;;5071698;28;20180;-68
2022/06/04 13:24:20;;;;;;;10.55;9.45;;;26.20;99.90;;;;;;5071079;28;20172;-69
2022/06/04 13:27:05;;;;;;;12.68;10.35;;;26.00;99.90;;;;;;5071377;28;20173;-66
2022/06/04 13:29:37;;;;;;;13.10;10.35;;;26.00;99.90;;;;;;5071227;28;20184;-67